sensor_id;sensor_type;location;lat;lon;timestamp;P1;durP1;ratioP1;P2;durP2;ratioP2
10277;SDS011;5184;51.376;7.148;2022-10-26T00:01:15;6.20;;;3.30;;
10277;SDS011;5184;51.376;7.148;2022-10-26T00:03:43;5.00;;;3.00;;
10277;SDS011;5184;51.376;7.148;2022-10-26T00:06:10;5.37;;;3.20;;
10277;SDS011;5184;51.376;7.148;2022-10-26T00:08:38;5.27;;;3.20;;
10277;SDS011;5184;51.376;7.148;2022-10-26T00:11:05;4.87;;;3.07;;
10277;SDS011;5184;51.376;7.148;2022-10-26T00:13:33;7.57;;;2.93;;
10277;SDS011;5184;51.376;7.148;2022-10-26T00:15:59;4.73;;;3.10;;
10277;SDS011;5184;51.376;7.148;2022-10-26T00:18:26;6.07;;;3.20;;
10277;SDS011;5184;51.376;7.148;2022-10-26T00:20:53;7.20;;;3.33;;
10277;SDS011;5184;51.376;7.148;2022-10-26T00:23:20;4.57;;;3.10;;
10277;SDS011;5184;51.376;7.148;2022-10-26T00:25:53;8.30;;;2.73;;
10277;SDS011;5184;51.376;7.148;2022-10-26T00:28:20;8.63;;;3.00;;
10277;SDS011;5184;51.376;7.148;2022-10-26T00:30:47;8.17;;;3.20;;
10277;SDS011;5184;51.376;7.148;2022-10-26T00:33:14;5.37;;;2.90;;
10277;SDS011;5184;51.376;7.148;2022-10-26T00:35:40;4.20;;;3.10;;
10277;SDS011;5184;51.376;7.148;2022-10-26T00:38:07;5.00;;;3.00;;
10277;SDS011;5184;51.376;7.148;2022-10-26T00:40:34;4.77;;;2.90;;
10277;SDS011;5184;51.376;7.148;2022-10-26T00:43:00;6.40;;;3.17;;
10277;SDS011;5184;51.376;7.148;2022-10-26T00:45:28;6.57;;;2.67;;
10277;SDS011;5184;51.376;7.148;2022-10-26T00:47:56;6.93;;;2.53;;
10277;SDS011;5184;51.376;7.148;2022-10-26T00:50:25;5.63;;;2.70;;
10277;SDS011;5184;51.376;7.148;2022-10-26T00:52:51;5.53;;;2.93;;
10277;SDS011;5184;51.376;7.148;2022-10-26T00:55:18;4.87;;;2.50;;
10277;SDS011;5184;51.376;7.148;2022-10-26T00:57:45;5.70;;;2.67;;
10277;SDS011;5184;51.376;7.148;2022-10-26T01:00:12;5.70;;;2.97;;
10277;SDS011;5184;51.376;7.148;2022-10-26T01:02:39;7.63;;;2.67;;
10277;SDS011;5184;51.376;7.148;2022-10-26T01:05:06;5.83;;;2.80;;
10277;SDS011;5184;51.376;7.148;2022-10-26T01:07:33;5.47;;;2.30;;
10277;SDS011;5184;51.376;7.148;2022-10-26T01:10:01;6.30;;;2.20;;
10277;SDS011;5184;51.376;7.148;2022-10-26T01:12:28;6.17;;;2.53;;
10277;SDS011;5184;51.376;7.148;2022-10-26T01:14:55;5.17;;;2.33;;
10277;SDS011;5184;51.376;7.148;2022-10-26T01:17:33;4.17;;;2.27;;
10277;SDS011;5184;51.376;7.148;2022-10-26T01:22:53;6.27;;;2.43;;
10277;SDS011;5184;51.376;7.148;2022-10-26T01:25:38;5.03;;;2.70;;
10277;SDS011;5184;51.376;7.148;2022-10-26T01:28:07;5.70;;;2.33;;
10277;SDS011;5184;51.376;7.148;2022-10-26T01:30:35;5.57;;;2.20;;
10277;SDS011;5184;51.376;7.148;2022-10-26T01:35:39;6.43;;;2.40;;
10277;SDS011;5184;51.376;7.148;2022-10-26T01:38:07;4.80;;;2.10;;
10277;SDS011;5184;51.376;7.148;2022-10-26T01:40:36;3.27;;;2.13;;
10277;SDS011;5184;51.376;7.148;2022-10-26T01:43:03;4.67;;;2.30;;
10277;SDS011;5184;51.376;7.148;2022-10-26T01:45:28;3.60;;;2.57;;
10277;SDS011;5184;51.376;7.148;2022-10-26T01:47:54;8.20;;;2.80;;
10277;SDS011;5184;51.376;7.148;2022-10-26T01:50:22;4.33;;;2.20;;
10277;SDS011;5184;51.376;7.148;2022-10-26T01:52:48;4.20;;;2.00;;
10277;SDS011;5184;51.376;7.148;2022-10-26T01:57:54;5.33;;;2.13;;
10277;SDS011;5184;51.376;7.148;2022-10-26T02:00:21;3.50;;;2.13;;
10277;SDS011;5184;51.376;7.148;2022-10-26T02:02:58;5.33;;;2.40;;
10277;SDS011;5184;51.376;7.148;2022-10-26T02:06:05;2.67;;;1.70;;
10277;SDS011;5184;51.376;7.148;2022-10-26T02:08:54;5.43;;;2.33;;
10277;SDS011;5184;51.376;7.148;2022-10-26T02:11:23;4.77;;;2.33;;
10277;SDS011;5184;51.376;7.148;2022-10-26T02:13:53;3.43;;;1.90;;
10277;SDS011;5184;51.376;7.148;2022-10-26T02:16:52;4.47;;;2.10;;
10277;SDS011;5184;51.376;7.148;2022-10-26T02:19:02;6.60;;;1.80;;
10277;SDS011;5184;51.376;7.148;2022-10-26T02:21:33;7.13;;;2.20;;
10277;SDS011;5184;51.376;7.148;2022-10-26T02:23:58;3.80;;;2.03;;
10277;SDS011;5184;51.376;7.148;2022-10-26T02:26:26;3.43;;;1.80;;
10277;SDS011;5184;51.376;7.148;2022-10-26T02:28:53;2.47;;;1.60;;
10277;SDS011;5184;51.376;7.148;2022-10-26T02:31:19;3.97;;;1.77;;
10277;SDS011;5184;51.376;7.148;2022-10-26T02:33:47;3.70;;;1.80;;
10277;SDS011;5184;51.376;7.148;2022-10-26T02:36:13;6.00;;;1.90;;
10277;SDS011;5184;51.376;7.148;2022-10-26T02:38:39;5.73;;;2.07;;
10277;SDS011;5184;51.376;7.148;2022-10-26T02:41:05;1.70;;;1.57;;
10277;SDS011;5184;51.376;7.148;2022-10-26T02:43:34;3.58;;;1.92;;
10277;SDS011;5184;51.376;7.148;2022-10-26T02:46:01;7.30;;;1.70;;
10277;SDS011;5184;51.376;7.148;2022-10-26T02:48:27;5.10;;;1.80;;
10277;SDS011;5184;51.376;7.148;2022-10-26T02:51:15;6.10;;;2.43;;
10277;SDS011;5184;51.376;7.148;2022-10-26T02:53:45;3.17;;;1.87;;
10277;SDS011;5184;51.376;7.148;2022-10-26T02:56:16;4.10;;;1.60;;
10277;SDS011;5184;51.376;7.148;2022-10-26T02:58:39;2.90;;;1.67;;
10277;SDS011;5184;51.376;7.148;2022-10-26T03:01:05;3.30;;;1.70;;
10277;SDS011;5184;51.376;7.148;2022-10-26T03:03:32;3.50;;;1.77;;
10277;SDS011;5184;51.376;7.148;2022-10-26T03:05:59;5.13;;;1.87;;
10277;SDS011;5184;51.376;7.148;2022-10-26T03:08:27;3.87;;;2.03;;
10277;SDS011;5184;51.376;7.148;2022-10-26T03:10:54;5.40;;;2.10;;
10277;SDS011;5184;51.376;7.148;2022-10-26T03:13:21;3.53;;;1.70;;
10277;SDS011;5184;51.376;7.148;2022-10-26T03:15:47;6.07;;;1.80;;
10277;SDS011;5184;51.376;7.148;2022-10-26T03:18:14;4.57;;;1.87;;
10277;SDS011;5184;51.376;7.148;2022-10-26T03:20:42;4.37;;;1.60;;
10277;SDS011;5184;51.376;7.148;2022-10-26T03:23:10;4.03;;;1.47;;
10277;SDS011;5184;51.376;7.148;2022-10-26T03:25:37;3.27;;;1.90;;
10277;SDS011;5184;51.376;7.148;2022-10-26T03:28:04;3.43;;;1.50;;
10277;SDS011;5184;51.376;7.148;2022-10-26T03:30:31;5.73;;;1.90;;
10277;SDS011;5184;51.376;7.148;2022-10-26T03:32:57;4.60;;;1.80;;
10277;SDS011;5184;51.376;7.148;2022-10-26T03:35:24;4.27;;;1.70;;
10277;SDS011;5184;51.376;7.148;2022-10-26T03:37:51;5.17;;;1.77;;
10277;SDS011;5184;51.376;7.148;2022-10-26T03:40:18;4.93;;;1.60;;
10277;SDS011;5184;51.376;7.148;2022-10-26T03:42:46;5.50;;;1.80;;
10277;SDS011;5184;51.376;7.148;2022-10-26T03:45:12;4.20;;;1.40;;
10277;SDS011;5184;51.376;7.148;2022-10-26T03:47:44;5.07;;;1.53;;
10277;SDS011;5184;51.376;7.148;2022-10-26T03:50:10;4.67;;;1.60;;
10277;SDS011;5184;51.376;7.148;2022-10-26T03:52:36;2.30;;;1.60;;
10277;SDS011;5184;51.376;7.148;2022-10-26T03:55:03;4.77;;;1.70;;
10277;SDS011;5184;51.376;7.148;2022-10-26T03:57:30;6.63;;;1.80;;
10277;SDS011;5184;51.376;7.148;2022-10-26T03:59:57;2.97;;;1.50;;
10277;SDS011;5184;51.376;7.148;2022-10-26T04:02:24;3.33;;;1.63;;
10277;SDS011;5184;51.376;7.148;2022-10-26T04:04:51;3.40;;;1.50;;
10277;SDS011;5184;51.376;7.148;2022-10-26T04:07:19;3.80;;;1.97;;
10277;SDS011;5184;51.376;7.148;2022-10-26T04:09:45;6.57;;;1.77;;
10277;SDS011;5184;51.376;7.148;2022-10-26T04:12:12;7.10;;;1.70;;
10277;SDS011;5184;51.376;7.148;2022-10-26T04:14:39;2.80;;;1.40;;
10277;SDS011;5184;51.376;7.148;2022-10-26T04:17:06;2.90;;;1.50;;
10277;SDS011;5184;51.376;7.148;2022-10-26T04:19:33;3.57;;;1.77;;
10277;SDS011;5184;51.376;7.148;2022-10-26T04:22:01;2.97;;;1.50;;
10277;SDS011;5184;51.376;7.148;2022-10-26T04:24:28;4.80;;;1.60;;
10277;SDS011;5184;51.376;7.148;2022-10-26T04:26:56;1.93;;;1.47;;
10277;SDS011;5184;51.376;7.148;2022-10-26T04:29:23;4.17;;;1.53;;
10277;SDS011;5184;51.376;7.148;2022-10-26T04:31:50;2.47;;;1.67;;
10277;SDS011;5184;51.376;7.148;2022-10-26T04:34:18;3.87;;;1.80;;
10277;SDS011;5184;51.376;7.148;2022-10-26T04:36:45;3.77;;;1.80;;
10277;SDS011;5184;51.376;7.148;2022-10-26T04:39:12;3.33;;;1.80;;
10277;SDS011;5184;51.376;7.148;2022-10-26T04:41:40;2.77;;;1.47;;
10277;SDS011;5184;51.376;7.148;2022-10-26T04:44:07;6.43;;;1.90;;
10277;SDS011;5184;51.376;7.148;2022-10-26T04:46:34;4.77;;;1.70;;
10277;SDS011;5184;51.376;7.148;2022-10-26T04:49:01;2.93;;;1.50;;
10277;SDS011;5184;51.376;7.148;2022-10-26T04:51:28;3.30;;;1.90;;
10277;SDS011;5184;51.376;7.148;2022-10-26T04:53:55;4.13;;;1.90;;
10277;SDS011;5184;51.376;7.148;2022-10-26T04:56:21;4.27;;;1.93;;
10277;SDS011;5184;51.376;7.148;2022-10-26T04:58:48;2.77;;;1.60;;
10277;SDS011;5184;51.376;7.148;2022-10-26T05:01:15;3.60;;;1.70;;
10277;SDS011;5184;51.376;7.148;2022-10-26T05:03:42;3.83;;;2.00;;
10277;SDS011;5184;51.376;7.148;2022-10-26T05:06:09;7.07;;;1.93;;
10277;SDS011;5184;51.376;7.148;2022-10-26T05:08:37;3.63;;;1.83;;
10277;SDS011;5184;51.376;7.148;2022-10-26T05:11:04;2.60;;;1.50;;
10277;SDS011;5184;51.376;7.148;2022-10-26T05:13:31;2.93;;;1.80;;
10277;SDS011;5184;51.376;7.148;2022-10-26T05:15:59;5.00;;;1.93;;
10277;SDS011;5184;51.376;7.148;2022-10-26T05:18:26;4.90;;;1.60;;
10277;SDS011;5184;51.376;7.148;2022-10-26T05:20:53;3.03;;;1.80;;
10277;SDS011;5184;51.376;7.148;2022-10-26T05:23:20;4.53;;;1.53;;
10277;SDS011;5184;51.376;7.148;2022-10-26T05:25:46;2.93;;;1.70;;
10277;SDS011;5184;51.376;7.148;2022-10-26T05:28:13;3.40;;;1.77;;
10277;SDS011;5184;51.376;7.148;2022-10-26T05:30:40;3.53;;;1.87;;
10277;SDS011;5184;51.376;7.148;2022-10-26T05:33:07;3.23;;;1.70;;
10277;SDS011;5184;51.376;7.148;2022-10-26T05:35:32;2.50;;;1.27;;
10277;SDS011;5184;51.376;7.148;2022-10-26T05:38:01;3.97;;;1.77;;
10277;SDS011;5184;51.376;7.148;2022-10-26T05:40:26;5.07;;;1.63;;
10277;SDS011;5184;51.376;7.148;2022-10-26T05:42:58;4.47;;;1.60;;
10277;SDS011;5184;51.376;7.148;2022-10-26T05:45:21;2.17;;;1.23;;
10277;SDS011;5184;51.376;7.148;2022-10-26T05:47:49;3.10;;;1.40;;
10277;SDS011;5184;51.376;7.148;2022-10-26T05:50:15;4.50;;;1.60;;
10277;SDS011;5184;51.376;7.148;2022-10-26T05:52:43;2.03;;;1.33;;
10277;SDS011;5184;51.376;7.148;2022-10-26T05:55:10;5.23;;;1.43;;
10277;SDS011;5184;51.376;7.148;2022-10-26T05:57:36;2.53;;;1.33;;
10277;SDS011;5184;51.376;7.148;2022-10-26T06:00:06;2.63;;;1.60;;
10277;SDS011;5184;51.376;7.148;2022-10-26T06:02:33;2.37;;;1.60;;
10277;SDS011;5184;51.376;7.148;2022-10-26T06:05:02;2.40;;;1.23;;
10277;SDS011;5184;51.376;7.148;2022-10-26T06:07:25;3.80;;;1.40;;
10277;SDS011;5184;51.376;7.148;2022-10-26T06:09:52;4.43;;;1.30;;
10277;SDS011;5184;51.376;7.148;2022-10-26T06:12:19;2.77;;;1.47;;
10277;SDS011;5184;51.376;7.148;2022-10-26T06:14:46;2.00;;;1.17;;
10277;SDS011;5184;51.376;7.148;2022-10-26T06:22:51;1.80;;;1.00;;
10277;SDS011;5184;51.376;7.148;2022-10-26T06:25:22;3.60;;;1.27;;
10277;SDS011;5184;51.376;7.148;2022-10-26T06:27:54;2.50;;;1.20;;
10277;SDS011;5184;51.376;7.148;2022-10-26T06:30:18;2.50;;;1.20;;
10277;SDS011;5184;51.376;7.148;2022-10-26T06:32:46;3.90;;;1.20;;
10277;SDS011;5184;51.376;7.148;2022-10-26T06:35:17;2.60;;;1.40;;
10277;SDS011;5184;51.376;7.148;2022-10-26T06:37:53;2.03;;;1.33;;
10277;SDS011;5184;51.376;7.148;2022-10-26T06:40:19;2.33;;;1.30;;
10277;SDS011;5184;51.376;7.148;2022-10-26T06:42:46;3.17;;;1.10;;
10277;SDS011;5184;51.376;7.148;2022-10-26T06:45:13;3.70;;;1.30;;
10277;SDS011;5184;51.376;7.148;2022-10-26T06:50:30;5.03;;;1.30;;
10277;SDS011;5184;51.376;7.148;2022-10-26T06:53:17;2.53;;;1.30;;
10277;SDS011;5184;51.376;7.148;2022-10-26T06:55:47;3.63;;;1.30;;
10277;SDS011;5184;51.376;7.148;2022-10-26T06:58:14;2.70;;;1.20;;
10277;SDS011;5184;51.376;7.148;2022-10-26T07:00:40;4.23;;;1.20;;
10277;SDS011;5184;51.376;7.148;2022-10-26T07:03:07;3.27;;;1.17;;
10277;SDS011;5184;51.376;7.148;2022-10-26T07:05:33;3.60;;;1.30;;
10277;SDS011;5184;51.376;7.148;2022-10-26T07:08:01;3.73;;;1.20;;
10277;SDS011;5184;51.376;7.148;2022-10-26T07:10:27;2.63;;;1.10;;
10277;SDS011;5184;51.376;7.148;2022-10-26T07:12:54;3.17;;;1.53;;
10277;SDS011;5184;51.376;7.148;2022-10-26T07:15:21;3.30;;;1.20;;
10277;SDS011;5184;51.376;7.148;2022-10-26T07:17:49;2.23;;;1.10;;
10277;SDS011;5184;51.376;7.148;2022-10-26T07:20:19;2.67;;;1.27;;
10277;SDS011;5184;51.376;7.148;2022-10-26T07:22:43;2.23;;;1.20;;
10277;SDS011;5184;51.376;7.148;2022-10-26T07:25:09;3.90;;;1.20;;
10277;SDS011;5184;51.376;7.148;2022-10-26T07:27:36;2.30;;;1.20;;
10277;SDS011;5184;51.376;7.148;2022-10-26T07:30:03;2.77;;;1.30;;
10277;SDS011;5184;51.376;7.148;2022-10-26T07:32:29;1.77;;;1.10;;
10277;SDS011;5184;51.376;7.148;2022-10-26T07:34:56;1.70;;;1.20;;
10277;SDS011;5184;51.376;7.148;2022-10-26T07:37:23;3.50;;;1.30;;
10277;SDS011;5184;51.376;7.148;2022-10-26T07:39:49;2.33;;;1.27;;
10277;SDS011;5184;51.376;7.148;2022-10-26T07:42:16;3.10;;;1.30;;
10277;SDS011;5184;51.376;7.148;2022-10-26T07:44:42;2.03;;;1.40;;
10277;SDS011;5184;51.376;7.148;2022-10-26T07:47:09;3.67;;;1.30;;
10277;SDS011;5184;51.376;7.148;2022-10-26T07:49:36;4.23;;;1.27;;
10277;SDS011;5184;51.376;7.148;2022-10-26T07:52:04;2.50;;;1.20;;
10277;SDS011;5184;51.376;7.148;2022-10-26T07:54:31;3.00;;;1.40;;
10277;SDS011;5184;51.376;7.148;2022-10-26T07:56:58;3.23;;;1.43;;
10277;SDS011;5184;51.376;7.148;2022-10-26T07:59:26;3.07;;;1.43;;
10277;SDS011;5184;51.376;7.148;2022-10-26T08:01:54;2.00;;;1.40;;
10277;SDS011;5184;51.376;7.148;2022-10-26T08:04:21;6.97;;;1.63;;
10277;SDS011;5184;51.376;7.148;2022-10-26T08:06:49;2.70;;;1.40;;
10277;SDS011;5184;51.376;7.148;2022-10-26T08:09:16;3.73;;;1.70;;
10277;SDS011;5184;51.376;7.148;2022-10-26T08:11:43;3.23;;;1.20;;
10277;SDS011;5184;51.376;7.148;2022-10-26T08:14:09;5.03;;;1.47;;
10277;SDS011;5184;51.376;7.148;2022-10-26T08:16:36;3.47;;;1.40;;
10277;SDS011;5184;51.376;7.148;2022-10-26T08:19:02;2.57;;;1.40;;
10277;SDS011;5184;51.376;7.148;2022-10-26T08:21:29;4.10;;;1.43;;
10277;SDS011;5184;51.376;7.148;2022-10-26T08:23:56;1.93;;;1.37;;
10277;SDS011;5184;51.376;7.148;2022-10-26T08:26:24;3.17;;;1.50;;
10277;SDS011;5184;51.376;7.148;2022-10-26T08:28:51;4.00;;;1.47;;
10277;SDS011;5184;51.376;7.148;2022-10-26T08:31:18;4.43;;;1.50;;
10277;SDS011;5184;51.376;7.148;2022-10-26T08:33:44;3.60;;;1.60;;
10277;SDS011;5184;51.376;7.148;2022-10-26T08:36:11;4.27;;;1.70;;
10277;SDS011;5184;51.376;7.148;2022-10-26T08:38:38;1.73;;;1.30;;
10277;SDS011;5184;51.376;7.148;2022-10-26T08:41:06;2.27;;;1.50;;
10277;SDS011;5184;51.376;7.148;2022-10-26T08:43:35;2.17;;;1.50;;
10277;SDS011;5184;51.376;7.148;2022-10-26T08:46:04;4.00;;;1.67;;
10277;SDS011;5184;51.376;7.148;2022-10-26T08:48:31;2.93;;;1.57;;
10277;SDS011;5184;51.376;7.148;2022-10-26T08:51:00;4.17;;;1.70;;
10277;SDS011;5184;51.376;7.148;2022-10-26T08:53:42;6.13;;;1.60;;
10277;SDS011;5184;51.376;7.148;2022-10-26T08:56:17;2.60;;;1.60;;
10277;SDS011;5184;51.376;7.148;2022-10-26T08:58:45;2.47;;;1.60;;
10277;SDS011;5184;51.376;7.148;2022-10-26T09:01:12;3.03;;;1.63;;
10277;SDS011;5184;51.376;7.148;2022-10-26T09:03:38;2.70;;;1.60;;
10277;SDS011;5184;51.376;7.148;2022-10-26T09:06:09;5.50;;;1.60;;
10277;SDS011;5184;51.376;7.148;2022-10-26T09:08:37;2.47;;;1.50;;
10277;SDS011;5184;51.376;7.148;2022-10-26T09:11:25;3.73;;;1.50;;
10277;SDS011;5184;51.376;7.148;2022-10-26T09:13:54;4.07;;;1.70;;
10277;SDS011;5184;51.376;7.148;2022-10-26T09:16:21;3.63;;;1.80;;
10277;SDS011;5184;51.376;7.148;2022-10-26T09:26:36;4.97;;;1.97;;
10277;SDS011;5184;51.376;7.148;2022-10-26T09:29:02;2.83;;;1.53;;
10277;SDS011;5184;51.376;7.148;2022-10-26T09:31:29;2.10;;;1.60;;
10277;SDS011;5184;51.376;7.148;2022-10-26T09:33:55;3.97;;;1.70;;
10277;SDS011;5184;51.376;7.148;2022-10-26T09:36:22;3.90;;;1.70;;
10277;SDS011;5184;51.376;7.148;2022-10-26T09:38:54;4.17;;;1.80;;
10277;SDS011;5184;51.376;7.148;2022-10-26T09:41:24;3.03;;;1.90;;
10277;SDS011;5184;51.376;7.148;2022-10-26T09:43:56;3.97;;;2.17;;
10277;SDS011;5184;51.376;7.148;2022-10-26T09:46:25;3.33;;;1.80;;
10277;SDS011;5184;51.376;7.148;2022-10-26T09:48:52;3.33;;;1.80;;
10277;SDS011;5184;51.376;7.148;2022-10-26T09:51:20;2.33;;;1.70;;
10277;SDS011;5184;51.376;7.148;2022-10-26T09:53:47;3.57;;;2.00;;
10277;SDS011;5184;51.376;7.148;2022-10-26T09:56:13;5.23;;;2.10;;
10277;SDS011;5184;51.376;7.148;2022-10-26T09:58:41;2.93;;;1.70;;
10277;SDS011;5184;51.376;7.148;2022-10-26T10:01:42;3.47;;;1.80;;
10277;SDS011;5184;51.376;7.148;2022-10-26T10:06:34;4.30;;;1.70;;
10277;SDS011;5184;51.376;7.148;2022-10-26T10:09:05;4.93;;;2.00;;
10277;SDS011;5184;51.376;7.148;2022-10-26T10:11:36;3.60;;;1.70;;
10277;SDS011;5184;51.376;7.148;2022-10-26T10:14:06;5.47;;;1.90;;
10277;SDS011;5184;51.376;7.148;2022-10-26T10:16:31;4.07;;;2.10;;
10277;SDS011;5184;51.376;7.148;2022-10-26T10:18:58;3.37;;;1.70;;
10277;SDS011;5184;51.376;7.148;2022-10-26T10:21:32;4.27;;;1.63;;
10277;SDS011;5184;51.376;7.148;2022-10-26T10:23:59;6.37;;;2.00;;
10277;SDS011;5184;51.376;7.148;2022-10-26T10:26:25;8.53;;;2.53;;
10277;SDS011;5184;51.376;7.148;2022-10-26T10:28:57;7.97;;;2.50;;
10277;SDS011;5184;51.376;7.148;2022-10-26T10:31:27;4.73;;;2.30;;
10277;SDS011;5184;51.376;7.148;2022-10-26T10:33:53;3.50;;;2.23;;
10277;SDS011;5184;51.376;7.148;2022-10-26T10:36:20;2.97;;;2.00;;
10277;SDS011;5184;51.376;7.148;2022-10-26T10:38:47;4.67;;;2.20;;
10277;SDS011;5184;51.376;7.148;2022-10-26T10:41:15;6.27;;;2.33;;
10277;SDS011;5184;51.376;7.148;2022-10-26T10:43:49;5.30;;;2.20;;
10277;SDS011;5184;51.376;7.148;2022-10-26T10:46:17;7.07;;;2.40;;
10277;SDS011;5184;51.376;7.148;2022-10-26T10:48:45;7.23;;;2.30;;
10277;SDS011;5184;51.376;7.148;2022-10-26T10:51:12;7.70;;;2.40;;
10277;SDS011;5184;51.376;7.148;2022-10-26T10:53:46;6.20;;;2.40;;
10277;SDS011;5184;51.376;7.148;2022-10-26T10:56:22;4.67;;;2.03;;
10277;SDS011;5184;51.376;7.148;2022-10-26T10:58:55;5.23;;;2.30;;
10277;SDS011;5184;51.376;7.148;2022-10-26T11:01:20;5.27;;;2.20;;
10277;SDS011;5184;51.376;7.148;2022-10-26T11:03:55;4.97;;;2.47;;
10277;SDS011;5184;51.376;7.148;2022-10-26T11:06:19;5.20;;;2.60;;
10277;SDS011;5184;51.376;7.148;2022-10-26T11:08:56;4.47;;;2.20;;
10277;SDS011;5184;51.376;7.148;2022-10-26T11:11:28;6.20;;;2.50;;
10277;SDS011;5184;51.376;7.148;2022-10-26T11:13:55;5.03;;;2.60;;
10277;SDS011;5184;51.376;7.148;2022-10-26T11:16:23;4.17;;;2.40;;
10277;SDS011;5184;51.376;7.148;2022-10-26T11:18:53;5.23;;;2.30;;
10277;SDS011;5184;51.376;7.148;2022-10-26T11:21:26;6.30;;;2.53;;
10277;SDS011;5184;51.376;7.148;2022-10-26T11:23:56;7.27;;;2.57;;
10277;SDS011;5184;51.376;7.148;2022-10-26T11:26:27;4.83;;;2.47;;
10277;SDS011;5184;51.376;7.148;2022-10-26T11:31:38;6.63;;;2.70;;
10277;SDS011;5184;51.376;7.148;2022-10-26T11:34:08;4.33;;;2.40;;
10277;SDS011;5184;51.376;7.148;2022-10-26T11:36:35;7.83;;;2.63;;
10277;SDS011;5184;51.376;7.148;2022-10-26T11:39:06;6.17;;;2.43;;
10277;SDS011;5184;51.376;7.148;2022-10-26T11:41:39;8.13;;;2.97;;
10277;SDS011;5184;51.376;7.148;2022-10-26T11:44:10;4.87;;;2.87;;
10277;SDS011;5184;51.376;7.148;2022-10-26T11:46:38;4.87;;;2.40;;
10277;SDS011;5184;51.376;7.148;2022-10-26T11:49:16;6.17;;;2.60;;
10277;SDS011;5184;51.376;7.148;2022-10-26T11:51:45;7.00;;;2.70;;
10277;SDS011;5184;51.376;7.148;2022-10-26T11:54:24;4.47;;;2.60;;
10277;SDS011;5184;51.376;7.148;2022-10-26T11:56:50;3.73;;;2.10;;
10277;SDS011;5184;51.376;7.148;2022-10-26T11:59:18;3.07;;;2.30;;
10277;SDS011;5184;51.376;7.148;2022-10-26T12:01:46;5.43;;;2.50;;
10277;SDS011;5184;51.376;7.148;2022-10-26T12:04:21;5.03;;;2.23;;
10277;SDS011;5184;51.376;7.148;2022-10-26T12:06:48;5.43;;;2.70;;
10277;SDS011;5184;51.376;7.148;2022-10-26T12:09:16;5.53;;;2.50;;
10277;SDS011;5184;51.376;7.148;2022-10-26T12:11:45;4.30;;;2.30;;
10277;SDS011;5184;51.376;7.148;2022-10-26T12:14:20;5.03;;;2.30;;
10277;SDS011;5184;51.376;7.148;2022-10-26T12:16:49;5.00;;;2.30;;
10277;SDS011;5184;51.376;7.148;2022-10-26T12:20:41;3.40;;;2.13;;
10277;SDS011;5184;51.376;7.148;2022-10-26T12:22:17;5.90;;;2.50;;
10277;SDS011;5184;51.376;7.148;2022-10-26T12:24:44;6.80;;;2.90;;
10277;SDS011;5184;51.376;7.148;2022-10-26T12:29:50;4.40;;;2.33;;
10277;SDS011;5184;51.376;7.148;2022-10-26T12:37:47;6.43;;;2.20;;
10277;SDS011;5184;51.376;7.148;2022-10-26T12:42:52;5.93;;;2.00;;
10277;SDS011;5184;51.376;7.148;2022-10-26T12:45:19;3.17;;;2.07;;
10277;SDS011;5184;51.376;7.148;2022-10-26T12:48:00;5.03;;;1.83;;
10277;SDS011;5184;51.376;7.148;2022-10-26T12:50:26;3.73;;;1.80;;
10277;SDS011;5184;51.376;7.148;2022-10-26T12:52:55;4.10;;;1.80;;
10277;SDS011;5184;51.376;7.148;2022-10-26T12:58:03;2.73;;;1.60;;
10277;SDS011;5184;51.376;7.148;2022-10-26T13:00:45;2.97;;;1.30;;
10277;SDS011;5184;51.376;7.148;2022-10-26T13:03:16;2.60;;;1.57;;
10277;SDS011;5184;51.376;7.148;2022-10-26T13:08:37;3.20;;;1.73;;
10277;SDS011;5184;51.376;7.148;2022-10-26T13:11:06;4.50;;;1.60;;
10277;SDS011;5184;51.376;7.148;2022-10-26T13:13:33;2.40;;;1.70;;
10277;SDS011;5184;51.376;7.148;2022-10-26T13:16:00;2.53;;;1.30;;
10277;SDS011;5184;51.376;7.148;2022-10-26T13:18:26;3.37;;;1.67;;
10277;SDS011;5184;51.376;7.148;2022-10-26T13:21:01;1.93;;;1.40;;
10277;SDS011;5184;51.376;7.148;2022-10-26T13:23:36;2.67;;;1.60;;
10277;SDS011;5184;51.376;7.148;2022-10-26T13:26:07;2.53;;;1.40;;
10277;SDS011;5184;51.376;7.148;2022-10-26T13:28:46;3.70;;;1.57;;
10277;SDS011;5184;51.376;7.148;2022-10-26T13:31:51;2.70;;;1.60;;
10277;SDS011;5184;51.376;7.148;2022-10-26T13:33:51;3.87;;;1.50;;
10277;SDS011;5184;51.376;7.148;2022-10-26T13:39:13;3.60;;;1.80;;
10277;SDS011;5184;51.376;7.148;2022-10-26T13:41:39;4.63;;;1.60;;
10277;SDS011;5184;51.376;7.148;2022-10-26T13:44:06;2.87;;;1.57;;
10277;SDS011;5184;51.376;7.148;2022-10-26T13:46:34;3.80;;;1.83;;
10277;SDS011;5184;51.376;7.148;2022-10-26T13:49:02;4.47;;;1.90;;
10277;SDS011;5184;51.376;7.148;2022-10-26T13:51:37;3.57;;;1.57;;
10277;SDS011;5184;51.376;7.148;2022-10-26T13:54:03;3.50;;;1.53;;
10277;SDS011;5184;51.376;7.148;2022-10-26T13:56:30;2.50;;;1.40;;
10277;SDS011;5184;51.376;7.148;2022-10-26T13:59:12;3.53;;;1.70;;
10277;SDS011;5184;51.376;7.148;2022-10-26T14:01:38;3.77;;;1.77;;
10277;SDS011;5184;51.376;7.148;2022-10-26T14:06:39;4.57;;;1.60;;
10277;SDS011;5184;51.376;7.148;2022-10-26T14:09:12;3.27;;;1.40;;
10277;SDS011;5184;51.376;7.148;2022-10-26T14:11:45;1.70;;;1.27;;
10277;SDS011;5184;51.376;7.148;2022-10-26T14:14:18;3.57;;;1.60;;
10277;SDS011;5184;51.376;7.148;2022-10-26T14:16:45;1.90;;;1.37;;
10277;SDS011;5184;51.376;7.148;2022-10-26T14:19:23;3.10;;;1.63;;
10277;SDS011;5184;51.376;7.148;2022-10-26T14:21:41;3.83;;;1.40;;
10277;SDS011;5184;51.376;7.148;2022-10-26T14:24:17;3.73;;;1.40;;
10277;SDS011;5184;51.376;7.148;2022-10-26T14:26:38;2.73;;;1.40;;
10277;SDS011;5184;51.376;7.148;2022-10-26T14:29:03;1.73;;;1.47;;
10277;SDS011;5184;51.376;7.148;2022-10-26T14:31:30;3.27;;;1.47;;
10277;SDS011;5184;51.376;7.148;2022-10-26T14:33:57;2.63;;;1.30;;
10277;SDS011;5184;51.376;7.148;2022-10-26T14:36:25;2.73;;;1.40;;
10277;SDS011;5184;51.376;7.148;2022-10-26T14:38:56;1.60;;;1.10;;
10277;SDS011;5184;51.376;7.148;2022-10-26T14:41:20;2.20;;;1.37;;
10277;SDS011;5184;51.376;7.148;2022-10-26T14:43:48;3.23;;;1.57;;
10277;SDS011;5184;51.376;7.148;2022-10-26T14:46:16;1.80;;;1.27;;
10277;SDS011;5184;51.376;7.148;2022-10-26T14:48:50;2.47;;;1.30;;
10277;SDS011;5184;51.376;7.148;2022-10-26T14:51:16;2.73;;;1.33;;
10277;SDS011;5184;51.376;7.148;2022-10-26T14:53:47;3.60;;;1.30;;
10277;SDS011;5184;51.376;7.148;2022-10-26T14:58:47;2.87;;;1.40;;
10277;SDS011;5184;51.376;7.148;2022-10-26T15:01:22;3.60;;;1.50;;
10277;SDS011;5184;51.376;7.148;2022-10-26T15:03:53;1.90;;;1.43;;
10277;SDS011;5184;51.376;7.148;2022-10-26T15:06:25;2.00;;;1.40;;
10277;SDS011;5184;51.376;7.148;2022-10-26T15:09:04;2.33;;;1.37;;
10277;SDS011;5184;51.376;7.148;2022-10-26T15:11:31;2.57;;;1.40;;
10277;SDS011;5184;51.376;7.148;2022-10-26T15:13:58;2.40;;;1.20;;
10277;SDS011;5184;51.376;7.148;2022-10-26T15:16:26;2.77;;;1.37;;
10277;SDS011;5184;51.376;7.148;2022-10-26T15:18:53;2.37;;;1.57;;
10277;SDS011;5184;51.376;7.148;2022-10-26T15:21:23;2.83;;;1.30;;
10277;SDS011;5184;51.376;7.148;2022-10-26T15:23:50;3.40;;;1.73;;
10277;SDS011;5184;51.376;7.148;2022-10-26T15:26:17;4.07;;;1.63;;
10277;SDS011;5184;51.376;7.148;2022-10-26T15:28:43;2.67;;;1.60;;
10277;SDS011;5184;51.376;7.148;2022-10-26T15:36:37;2.50;;;1.70;;
10277;SDS011;5184;51.376;7.148;2022-10-26T15:39:03;3.70;;;1.70;;
10277;SDS011;5184;51.376;7.148;2022-10-26T15:41:31;3.90;;;1.50;;
10277;SDS011;5184;51.376;7.148;2022-10-26T15:43:58;2.60;;;1.50;;
10277;SDS011;5184;51.376;7.148;2022-10-26T15:46:28;3.23;;;1.40;;
10277;SDS011;5184;51.376;7.148;2022-10-26T15:48:55;6.07;;;1.70;;
10277;SDS011;5184;51.376;7.148;2022-10-26T15:51:22;3.50;;;1.63;;
10277;SDS011;5184;51.376;7.148;2022-10-26T15:53:49;2.90;;;1.50;;
10277;SDS011;5184;51.376;7.148;2022-10-26T15:56:16;2.80;;;1.60;;
10277;SDS011;5184;51.376;7.148;2022-10-26T15:58:42;2.93;;;1.70;;
10277;SDS011;5184;51.376;7.148;2022-10-26T16:01:13;2.43;;;1.70;;
10277;SDS011;5184;51.376;7.148;2022-10-26T16:03:38;3.83;;;1.67;;
10277;SDS011;5184;51.376;7.148;2022-10-26T16:06:04;1.97;;;1.70;;
10277;SDS011;5184;51.376;7.148;2022-10-26T16:08:33;2.50;;;1.60;;